Time;durP1;ratioP1;P1;durP2;ratioP2;P2;SDS_P1;SDS_P2;PMS_P1;PMS_P2;Temp;Humidity;BMP_temperature;BMP_pressure;BME280_temperature;BME280_humidity;BME280_pressure;Samples;Min_cycle;Max_cycle;Signal;HPM_P1;HPM_P2
2023/08/28 00:00:58;;;;;;;15.43;5.53;;;;;;;;;;5053404;28;20592;-28
2023/08/28 00:03:23;;;;;;;7.28;5.70;;;;;;;;;;5052992;28;20017;-30
2023/08/28 00:05:48;;;;;;;9.70;5.90;;;;;;;;;;5053167;28;20491;-28
2023/08/28 00:08:13;;;;;;;8.95;5.60;;;;;;;;;;5053017;28;20017;-28
2023/08/28 00:10:42;;;;;;;11.63;6.00;;;;;;;;;;5053533;28;20040;-28
2023/08/28 00:13:07;;;;;;;9.52;5.80;;;;;;;;;;5053177;28;20116;-28
2023/08/28 00:15:32;;;;;;;9.10;5.83;;;;;;;;;;5053170;28;20429;-28
2023/08/28 00:17:57;;;;;;;6.90;5.10;;;;;;;;;;5053067;28;20250;-28
2023/08/28 00:20:23;;;;;;;8.93;5.43;;;;;;;;;;5053380;28;20273;-28
2023/08/28 00:22:49;;;;;;;7.40;4.97;;;;;;;;;;5053313;28;20488;-28
2023/08/28 00:25:14;;;;;;;8.73;5.30;;;;;;;;;;5053016;28;20021;-28
2023/08/28 00:27:39;;;;;;;11.82;5.50;;;;;;;;;;5053001;28;20024;-28
2023/08/28 00:30:05;;;;;;;9.47;5.80;;;;;;;;;;5053173;28;20062;-28
2023/08/28 00:32:30;;;;;;;8.75;6.18;;;;;;;;;;5053133;28;20322;-28
2023/08/28 00:34:55;;;;;;;8.98;5.80;;;;;;;;;;5052905;28;20481;-29
2023/08/28 00:37:20;;;;;;;10.82;6.10;;;;;;;;;;5053691;28;20410;-28
2023/08/28 00:39:46;;;;;;;7.87;6.00;;;;;;;;;;5053441;28;20021;-29
2023/08/28 00:42:11;;;;;;;10.82;5.93;;;;;;;;;;5052844;28;20739;-27
2023/08/28 00:44:36;;;;;;;10.27;5.60;;;;;;;;;;5052737;28;20111;-28
2023/08/28 00:47:02;;;;;;;12.90;5.40;;;;;;;;;;5053336;28;20044;-28
2023/08/28 00:49:28;;;;;;;7.82;5.28;;;;;;;;;;5052701;28;20275;-28
2023/08/28 00:51:53;;;;;;;8.95;5.20;;;;;;;;;;5053309;28;20032;-28
2023/08/28 00:54:19;;;;;;;10.35;5.57;;;;;;;;;;5053547;28;20108;-28
2023/08/28 00:56:44;;;;;;;10.60;5.63;;;;;;;;;;5054087;28;20063;-28
2023/08/28 00:59:09;;;;;;;8.88;5.43;;;;;;;;;;5056442;28;20017;-28
2023/08/28 01:01:34;;;;;;;11.67;5.63;;;;;;;;;;5057004;28;20093;-27
2023/08/28 01:04:00;;;;;;;10.13;5.60;;;;;;;;;;5056362;28;20614;-28
2023/08/28 01:06:34;;;;;;;8.80;5.18;;;;;;;;;;5056345;28;20093;-28
2023/08/28 01:09:04;;;;;;;8.65;5.38;;;;;;;;;;5056792;28;20028;-28
2023/08/28 01:11:31;;;;;;;9.40;5.38;;;;;;;;;;5056753;28;20452;-28
2023/08/28 01:14:01;;;;;;;9.05;5.55;;;;;;;;;;5056229;28;20094;-29
2023/08/28 01:16:27;;;;;;;7.45;5.20;;;;;;;;;;5056406;28;20459;-28
2023/08/28 01:18:52;;;;;;;13.15;5.50;;;;;;;;;;5056078;28;20019;-28
2023/08/28 01:21:18;;;;;;;10.48;5.72;;;;;;;;;;5056360;28;20048;-28
2023/08/28 01:23:47;;;;;;;9.05;5.18;;;;;;;;;;5056187;28;20032;-28
2023/08/28 01:26:13;;;;;;;11.18;5.45;;;;;;;;;;5056210;28;20029;-28
2023/08/28 01:28:38;;;;;;;10.52;5.95;;;;;;;;;;5055874;28;20031;-28
2023/08/28 01:31:04;;;;;;;11.50;6.35;;;;;;;;;;5056036;28;20369;-27
2023/08/28 01:33:30;;;;;;;8.00;5.50;;;;;;;;;;5055540;28;20040;-28
2023/08/28 01:36:01;;;;;;;10.60;6.40;;;;;;;;;;5055749;28;20025;-28
2023/08/28 01:38:31;;;;;;;10.25;5.88;;;;;;;;;;5055685;28;20104;-28
2023/08/28 01:40:59;;;;;;;9.25;6.00;;;;;;;;;;5055682;28;20104;-28
2023/08/28 01:43:27;;;;;;;12.63;5.97;;;;;;;;;;5055909;28;20021;-28
2023/08/28 01:45:53;;;;;;;9.18;5.75;;;;;;;;;;5055785;28;20025;-28
2023/08/28 01:48:18;;;;;;;13.88;6.30;;;;;;;;;;5055372;28;20490;-28
2023/08/28 01:50:43;;;;;;;11.07;6.47;;;;;;;;;;5056072;28;20471;-28
2023/08/28 01:53:09;;;;;;;10.48;5.95;;;;;;;;;;5055733;28;20013;-28
2023/08/28 01:55:37;;;;;;;9.95;5.88;;;;;;;;;;5055423;28;20019;-28
2023/08/28 01:58:02;;;;;;;8.55;6.07;;;;;;;;;;5055600;28;20043;-28
2023/08/28 02:00:28;;;;;;;9.02;6.15;;;;;;;;;;5055571;28;20468;-28
2023/08/28 02:02:53;;;;;;;14.77;6.30;;;;;;;;;;5054015;28;20032;-28
2023/08/28 02:05:18;;;;;;;11.10;5.73;;;;;;;;;;5055467;28;20354;-28
2023/08/28 02:07:43;;;;;;;10.03;6.13;;;;;;;;;;5054748;28;20613;-29
2023/08/28 02:10:08;;;;;;;8.17;5.80;;;;;;;;;;5055727;28;20255;-29
2023/08/28 02:12:34;;;;;;;9.43;5.45;;;;;;;;;;5055097;28;20321;-29
2023/08/28 02:14:59;;;;;;;9.32;5.95;;;;;;;;;;5054840;28;20044;-29
2023/08/28 02:17:24;;;;;;;8.85;6.13;;;;;;;;;;5054919;28;20116;-29
2023/08/28 02:19:49;;;;;;;6.83;5.53;;;;;;;;;;5054915;28;20057;-29
2023/08/28 02:22:14;;;;;;;10.73;6.40;;;;;;;;;;5055428;28;20378;-29
2023/08/28 02:24:40;;;;;;;10.20;6.20;;;;;;;;;;5055088;28;20270;-29
2023/08/28 02:27:05;;;;;;;11.43;6.50;;;;;;;;;;5054821;28;20092;-28
2023/08/28 02:29:30;;;;;;;7.83;5.47;;;;;;;;;;5054565;28;20781;-28
2023/08/28 02:31:55;;;;;;;6.80;5.60;;;;;;;;;;5054709;28;20248;-28
2023/08/28 02:34:20;;;;;;;8.15;5.50;;;;;;;;;;5054933;28;20330;-28
2023/08/28 02:36:45;;;;;;;9.30;5.87;;;;;;;;;;5054928;28;20052;-28
2023/08/28 02:39:11;;;;;;;8.10;5.47;;;;;;;;;;5053697;28;20255;-28
2023/08/28 02:41:36;;;;;;;19.07;5.97;;;;;;;;;;5055049;28;20248;-28
2023/08/28 02:44:01;;;;;;;7.37;5.43;;;;;;;;;;5054404;28;20263;-28
2023/08/28 02:46:26;;;;;;;8.60;5.67;;;;;;;;;;5054649;28;20263;-28
2023/08/28 02:48:51;;;;;;;15.82;6.15;;;;;;;;;;5054617;28;20626;-28
2023/08/28 02:51:17;;;;;;;8.97;5.07;;;;;;;;;;5054611;28;20505;-28
2023/08/28 02:53:42;;;;;;;11.60;5.47;;;;;;;;;;5054296;28;20250;-28
2023/08/28 02:56:33;;;;;;;13.33;5.50;;;;;;;;;;5054786;28;20256;-28
2023/08/28 02:58:58;;;;;;;8.00;5.80;;;;;;;;;;5051396;28;20500;-28
2023/08/28 03:01:23;;;;;;;7.97;5.77;;;;;;;;;;5054711;28;20051;-28
2023/08/28 03:03:48;;;;;;;8.27;4.97;;;;;;;;;;5054070;28;20251;-28
2023/08/28 03:06:14;;;;;;;9.55;5.75;;;;;;;;;;5054323;28;20033;-28
2023/08/28 03:08:39;;;;;;;7.65;5.40;;;;;;;;;;5054282;28;20032;-29
2023/08/28 03:11:04;;;;;;;7.67;5.53;;;;;;;;;;5054192;28;20029;-29
2023/08/28 03:13:29;;;;;;;7.83;5.80;;;;;;;;;;5053838;28;20279;-29
2023/08/28 03:15:55;;;;;;;8.00;5.55;;;;;;;;;;5054090;28;20290;-29
2023/08/28 03:18:21;;;;;;;7.30;5.87;;;;;;;;;;5053643;28;20116;-29
2023/08/28 03:20:46;;;;;;;9.02;6.40;;;;;;;;;;5053390;28;20252;-29
2023/08/28 03:23:11;;;;;;;11.45;6.43;;;;;;;;;;5053725;28;20025;-29
2023/08/28 03:25:37;;;;;;;11.50;7.17;;;;;;;;;;5054277;28;20024;-29
2023/08/28 03:28:06;;;;;;;12.00;6.97;;;;;;;;;;5053680;28;20021;-29
2023/08/28 03:30:32;;;;;;;10.15;6.88;;;;;;;;;;5054146;28;20802;-29
2023/08/28 03:32:57;;;;;;;11.63;6.73;;;;;;;;;;5053639;28;20049;-29
2023/08/28 03:35:22;;;;;;;9.07;6.23;;;;;;;;;;5054162;28;20334;-29
2023/08/28 03:37:47;;;;;;;11.83;7.07;;;;;;;;;;5054087;28;20591;-29
2023/08/28 03:40:12;;;;;;;9.23;6.43;;;;;;;;;;5053443;28;20271;-29
2023/08/28 03:42:38;;;;;;;8.07;6.63;;;;;;;;;;5053813;28;20009;-29
2023/08/28 03:45:03;;;;;;;8.63;6.60;;;;;;;;;;5053484;28;20021;-29
2023/08/28 03:47:29;;;;;;;12.23;6.90;;;;;;;;;;5053687;28;20266;-29
2023/08/28 03:49:54;;;;;;;9.10;6.43;;;;;;;;;;5053334;28;20017;-29
2023/08/28 03:52:19;;;;;;;14.18;6.63;;;;;;;;;;5052807;28;20067;-29
2023/08/28 03:54:44;;;;;;;10.48;6.90;;;;;;;;;;5052825;28;20502;-29
2023/08/28 03:57:10;;;;;;;12.27;6.90;;;;;;;;;;5052744;28;20071;-29
2023/08/28 03:59:35;;;;;;;12.38;6.82;;;;;;;;;;5053045;28;20023;-27
2023/08/28 04:02:02;;;;;;;9.67;6.43;;;;;;;;;;5052715;28;20093;-27
2023/08/28 04:04:27;;;;;;;9.10;6.70;;;;;;;;;;5052684;28;20296;-28
2023/08/28 04:06:52;;;;;;;10.30;6.70;;;;;;;;;;5053119;28;20025;-28
2023/08/28 04:09:17;;;;;;;9.00;6.50;;;;;;;;;;5053120;28;20279;-27
2023/08/28 04:11:43;;;;;;;10.10;6.57;;;;;;;;;;5053672;28;20013;-28
2023/08/28 04:14:08;;;;;;;11.80;6.47;;;;;;;;;;5053268;28;20291;-28
2023/08/28 04:16:33;;;;;;;9.13;6.72;;;;;;;;;;5053161;28;20796;-28
2023/08/28 04:18:58;;;;;;;10.75;6.13;;;;;;;;;;5053362;28;20074;-28
2023/08/28 04:21:23;;;;;;;12.33;6.30;;;;;;;;;;5053140;28;20383;-28
2023/08/28 04:23:49;;;;;;;9.15;6.80;;;;;;;;;;5053309;28;20294;-28
2023/08/28 04:26:14;;;;;;;8.68;6.70;;;;;;;;;;5053287;28;20025;-28
2023/08/28 04:28:39;;;;;;;11.10;6.57;;;;;;;;;;5053264;28;20372;-28
2023/08/28 04:31:07;;;;;;;10.83;6.43;;;;;;;;;;5054882;28;20287;-28
2023/08/28 04:33:33;;;;;;;13.48;6.07;;;;;;;;;;5056945;28;20262;-28
2023/08/28 04:35:58;;;;;;;11.23;6.35;;;;;;;;;;5057122;28;20100;-28
2023/08/28 04:38:23;;;;;;;8.98;5.88;;;;;;;;;;5057559;28;20078;-28
2023/08/28 04:40:49;;;;;;;11.75;6.25;;;;;;;;;;5056762;28;20048;-27
2023/08/28 04:43:14;;;;;;;9.05;5.63;;;;;;;;;;5056708;28;20017;-27
2023/08/28 04:45:39;;;;;;;10.30;6.00;;;;;;;;;;5056731;28;20028;-28
2023/08/28 04:48:04;;;;;;;9.98;6.30;;;;;;;;;;5056821;28;20634;-28
2023/08/28 04:50:30;;;;;;;10.75;6.13;;;;;;;;;;5056673;28;20345;-28
2023/08/28 04:52:55;;;;;;;7.93;5.70;;;;;;;;;;5056853;28;20460;-28
2023/08/28 04:55:20;;;;;;;9.37;5.87;;;;;;;;;;5056534;28;20017;-28
2023/08/28 04:57:46;;;;;;;9.07;6.00;;;;;;;;;;5057059;28;20244;-31
2023/08/28 05:00:11;;;;;;;8.73;5.90;;;;;;;;;;5056715;28;20641;-28
2023/08/28 05:02:37;;;;;;;8.75;5.70;;;;;;;;;;5055130;28;20287;-28
2023/08/28 05:05:03;;;;;;;8.15;5.45;;;;;;;;;;5056578;28;20356;-28
2023/08/28 05:07:28;;;;;;;12.68;5.63;;;;;;;;;;5056487;28;20009;-28
2023/08/28 05:09:53;;;;;;;10.60;5.55;;;;;;;;;;5056655;28;20025;-28
2023/08/28 05:12:18;;;;;;;7.68;5.45;;;;;;;;;;5056696;28;20013;-28
2023/08/28 05:14:43;;;;;;;8.38;5.47;;;;;;;;;;5056229;28;20072;-28
2023/08/28 05:17:09;;;;;;;11.47;5.80;;;;;;;;;;5056142;28;20025;-28
2023/08/28 05:19:35;;;;;;;9.47;5.77;;;;;;;;;;5056545;28;20686;-28
2023/08/28 05:22:00;;;;;;;7.45;5.43;;;;;;;;;;5055902;28;20396;-28
2023/08/28 05:24:25;;;;;;;9.17;5.80;;;;;;;;;;5056239;28;20021;-28
2023/08/28 05:26:50;;;;;;;8.07;5.43;;;;;;;;;;5056462;28;20259;-28
2023/08/28 05:29:15;;;;;;;9.88;5.50;;;;;;;;;;5055802;28;20776;-29
2023/08/28 05:31:41;;;;;;;11.67;6.17;;;;;;;;;;5055715;28;20104;-29
2023/08/28 05:34:06;;;;;;;7.65;5.55;;;;;;;;;;5055965;28;20252;-29
2023/08/28 05:36:31;;;;;;;12.00;6.00;;;;;;;;;;5055720;28;20016;-29
2023/08/28 05:38:56;;;;;;;7.82;5.65;;;;;;;;;;5055973;28;20252;-29
2023/08/28 05:41:22;;;;;;;9.10;5.70;;;;;;;;;;5056171;28;20052;-29
2023/08/28 05:43:47;;;;;;;11.00;5.50;;;;;;;;;;5055511;28;20247;-29
2023/08/28 05:46:12;;;;;;;8.73;5.77;;;;;;;;;;5055556;28;20718;-30
2023/08/28 05:48:37;;;;;;;9.27;6.37;;;;;;;;;;5055449;28;20284;-29
2023/08/28 05:51:03;;;;;;;12.10;7.33;;;;;;;;;;5055925;28;20090;-28
2023/08/28 05:53:29;;;;;;;9.07;6.40;;;;;;;;;;5055652;28;20786;-28
2023/08/28 05:55:54;;;;;;;9.98;6.80;;;;;;;;;;5055586;28;20024;-29
2023/08/28 05:58:19;;;;;;;10.02;6.20;;;;;;;;;;5055617;28;20380;-28
2023/08/28 06:00:45;;;;;;;9.15;5.90;;;;;;;;;;5055289;28;20021;-29
2023/08/28 06:03:11;;;;;;;9.40;5.65;;;;;;;;;;5055532;28;20028;-28
2023/08/28 06:05:36;;;;;;;11.93;6.00;;;;;;;;;;5055425;28;20088;-29
2023/08/28 06:08:01;;;;;;;8.63;5.07;;;;;;;;;;5055807;28;20418;-29
2023/08/28 06:10:28;;;;;;;10.73;5.17;;;;;;;;;;5055148;28;20024;-29
2023/08/28 06:12:53;;;;;;;11.00;4.03;;;;;;;;;;5054882;28;20259;-29
2023/08/28 06:15:18;;;;;;;6.43;3.10;;;;;;;;;;5055563;28;20013;-29
2023/08/28 06:17:44;;;;;;;5.28;3.30;;;;;;;;;;5054886;28;20028;-29
2023/08/28 06:20:12;;;;;;;4.82;3.10;;;;;;;;;;5054890;28;20025;-29
2023/08/28 06:22:37;;;;;;;6.25;3.17;;;;;;;;;;5054864;28;20027;-29
2023/08/28 06:25:03;;;;;;;6.15;3.50;;;;;;;;;;5054878;28;20092;-29
2023/08/28 06:27:28;;;;;;;6.55;3.97;;;;;;;;;;5055037;28;20418;-29
2023/08/28 06:29:54;;;;;;;5.90;3.40;;;;;;;;;;5055110;28;20349;-29
2023/08/28 06:32:19;;;;;;;6.10;3.40;;;;;;;;;;5054775;28;20045;-29
2023/08/28 06:34:44;;;;;;;4.10;2.87;;;;;;;;;;5055009;28;20021;-29
2023/08/28 06:37:09;;;;;;;4.07;2.47;;;;;;;;;;5055137;28;20147;-29
2023/08/28 06:39:35;;;;;;;4.00;2.60;;;;;;;;;;5054843;28;20432;-29
2023/08/28 06:42:00;;;;;;;4.60;2.33;;;;;;;;;;5054559;28;20493;-29
2023/08/28 06:44:25;;;;;;;4.00;2.13;;;;;;;;;;5054437;28;20017;-29
2023/08/28 06:46:50;;;;;;;5.95;2.42;;;;;;;;;;5054368;28;20028;-29
2023/08/28 06:49:16;;;;;;;4.20;2.47;;;;;;;;;;5054597;28;20108;-29
2023/08/28 06:51:41;;;;;;;5.40;2.50;;;;;;;;;;5054341;28;20466;-29
2023/08/28 06:54:06;;;;;;;4.73;2.30;;;;;;;;;;5053179;28;20309;-29
2023/08/28 06:56:31;;;;;;;7.03;2.60;;;;;;;;;;5054788;28;20028;-29
2023/08/28 06:58:57;;;;;;;5.70;2.30;;;;;;;;;;5054092;28;20341;-29
2023/08/28 07:01:22;;;;;;;5.03;2.30;;;;;;;;;;5054658;28;20330;-29
2023/08/28 07:03:47;;;;;;;3.95;2.30;;;;;;;;;;5054080;28;20025;-29
2023/08/28 07:06:13;;;;;;;7.17;2.30;;;;;;;;;;5054626;28;20016;-29
2023/08/28 07:08:38;;;;;;;5.03;2.20;;;;;;;;;;5054217;28;20017;-29
2023/08/28 07:11:04;;;;;;;3.97;1.90;;;;;;;;;;5054521;28;20333;-30
2023/08/28 07:13:29;;;;;;;3.97;2.00;;;;;;;;;;5054055;28;20527;-29
2023/08/28 07:15:54;;;;;;;5.40;2.17;;;;;;;;;;5054413;28;20013;-29
2023/08/28 07:18:20;;;;;;;4.72;2.13;;;;;;;;;;5054145;28;20472;-29
2023/08/28 07:20:45;;;;;;;4.57;2.10;;;;;;;;;;5053776;28;20021;-30
2023/08/28 07:23:10;;;;;;;3.43;2.00;;;;;;;;;;5054008;28;20029;-29
2023/08/28 07:25:35;;;;;;;4.37;1.90;;;;;;;;;;5053753;28;20016;-29
2023/08/28 07:28:01;;;;;;;4.68;1.70;;;;;;;;;;5053911;28;20074;-30
2023/08/28 07:30:26;;;;;;;2.90;1.70;;;;;;;;;;5054132;28;20017;-29
2023/08/28 07:32:51;;;;;;;3.00;1.70;;;;;;;;;;5054078;28;20020;-29
2023/08/28 07:35:16;;;;;;;4.37;1.77;;;;;;;;;;5052343;28;20467;-29
2023/08/28 07:37:41;;;;;;;3.80;1.37;;;;;;;;;;5053855;28;20025;-29
2023/08/28 07:40:08;;;;;;;2.83;1.40;;;;;;;;;;5053595;28;20016;-29
2023/08/28 07:42:33;;;;;;;4.85;1.50;;;;;;;;;;5053772;28;20017;-28
2023/08/28 07:44:59;;;;;;;2.53;1.20;;;;;;;;;;5053487;28;20024;-28
2023/08/28 07:47:24;;;;;;;3.33;0.85;;;;;;;;;;5053441;28;20104;-28
2023/08/28 07:49:49;;;;;;;3.15;1.00;;;;;;;;;;5053289;28;20082;-28
2023/08/28 07:52:15;;;;;;;2.67;0.97;;;;;;;;;;5053630;28;20013;-27
2023/08/28 07:54:40;;;;;;;5.13;1.10;;;;;;;;;;5053611;28;20017;-28
2023/08/28 07:57:05;;;;;;;2.87;1.20;;;;;;;;;;5053576;28;20448;-28
2023/08/28 07:59:31;;;;;;;2.95;1.13;;;;;;;;;;5053633;28;20019;-27
2023/08/28 08:01:57;;;;;;;2.97;1.03;;;;;;;;;;5053292;28;20138;-27
2023/08/28 08:04:22;;;;;;;3.40;1.05;;;;;;;;;;5053454;28;20024;-27
2023/08/28 08:06:48;;;;;;;1.17;0.70;;;;;;;;;;5056977;28;20472;-27
2023/08/28 08:09:13;;;;;;;4.53;1.20;;;;;;;;;;5057862;28;20315;-27
2023/08/28 08:11:38;;;;;;;2.13;0.80;;;;;;;;;;5057652;28;20017;-28
2023/08/28 08:14:03;;;;;;;4.00;1.03;;;;;;;;;;5057645;28;20052;-27
2023/08/28 08:16:28;;;;;;;2.73;1.03;;;;;;;;;;5057606;28;20090;-27
2023/08/28 08:18:54;;;;;;;2.73;0.83;;;;;;;;;;5057236;28;20646;-27
2023/08/28 08:21:19;;;;;;;2.17;0.60;;;;;;;;;;5056015;28;20267;-27
2023/08/28 08:23:45;;;;;;;4.57;1.00;;;;;;;;;;5057409;28;20363;-27
2023/08/28 08:26:10;;;;;;;1.58;0.80;;;;;;;;;;5057186;28;20024;-27
2023/08/28 08:28:35;;;;;;;3.57;1.00;;;;;;;;;;5057518;28;20049;-28
2023/08/28 08:31:00;;;;;;;3.93;1.00;;;;;;;;;;5057172;28;20024;-27
2023/08/28 08:33:26;;;;;;;2.60;0.93;;;;;;;;;;5056984;28;20025;-28
2023/08/28 08:35:51;;;;;;;3.93;1.37;;;;;;;;;;5056976;28;20064;-27
2023/08/28 08:38:17;;;;;;;2.70;0.87;;;;;;;;;;5056887;28;20452;-27
2023/08/28 08:40:42;;;;;;;2.60;1.10;;;;;;;;;;5057039;28;20028;-27
2023/08/28 08:43:08;;;;;;;4.32;0.90;;;;;;;;;;5056802;28;20353;-27
2023/08/28 08:45:36;;;;;;;2.95;0.80;;;;;;;;;;5057029;28;20025;-27
2023/08/28 08:48:02;;;;;;;3.30;0.77;;;;;;;;;;5056862;28;20107;-27
2023/08/28 08:50:28;;;;;;;5.22;1.13;;;;;;;;;;5057408;28;20017;-26
2023/08/28 08:52:55;;;;;;;2.60;1.00;;;;;;;;;;5056858;28;20020;-26
2023/08/28 08:55:27;;;;;;;4.15;1.40;;;;;;;;;;5056519;28;20086;-27
2023/08/28 08:57:55;;;;;;;3.50;1.08;;;;;;;;;;5057015;28;20021;-27
2023/08/28 09:00:20;;;;;;;7.82;1.15;;;;;;;;;;5056640;28;20145;-27
2023/08/28 09:02:46;;;;;;;1.80;0.70;;;;;;;;;;5056324;28;20028;-28
2023/08/28 09:05:12;;;;;;;2.88;1.05;;;;;;;;;;5056730;28;20256;-27
2023/08/28 09:07:37;;;;;;;1.67;0.80;;;;;;;;;;5056631;28;20484;-27
2023/08/28 09:10:04;;;;;;;2.40;0.87;;;;;;;;;;5056113;28;20060;-27
2023/08/28 09:12:29;;;;;;;3.33;0.70;;;;;;;;;;5056497;28;20576;-27
2023/08/28 09:14:54;;;;;;;3.17;0.80;;;;;;;;;;5056049;28;20051;-26
2023/08/28 09:17:21;;;;;;;1.33;0.80;;;;;;;;;;5055278;28;20256;-26
2023/08/28 09:19:47;;;;;;;3.20;1.00;;;;;;;;;;5056643;28;20032;-26
2023/08/28 09:22:12;;;;;;;3.25;0.90;;;;;;;;;;5055984;28;20075;-26
2023/08/28 09:24:37;;;;;;;1.60;0.80;;;;;;;;;;5056032;28;20029;-27
2023/08/28 09:27:03;;;;;;;4.00;1.10;;;;;;;;;;5055974;28;20468;-26
2023/08/28 09:29:28;;;;;;;4.20;1.35;;;;;;;;;;5056017;28;20306;-27
2023/08/28 09:32:00;;;;;;;5.03;1.50;;;;;;;;;;5055813;28;20013;-27
2023/08/28 09:34:34;;;;;;;2.33;1.17;;;;;;;;;;5056553;28;20039;-27
2023/08/28 09:37:00;;;;;;;3.00;1.00;;;;;;;;;;5055662;28;20009;-27
2023/08/28 09:39:25;;;;;;;2.13;0.77;;;;;;;;;;5055682;28;20017;-27
2023/08/28 09:41:50;;;;;;;2.37;0.93;;;;;;;;;;5055690;28;20021;-28
2023/08/28 09:44:16;;;;;;;2.42;1.00;;;;;;;;;;5055622;28;20357;-27
2023/08/28 09:46:42;;;;;;;3.28;1.10;;;;;;;;;;5055702;28;20088;-27
2023/08/28 09:49:08;;;;;;;2.97;1.20;;;;;;;;;;5055793;28;20021;-27
2023/08/28 09:51:43;;;;;;;2.78;0.98;;;;;;;;;;5055559;28;20498;-27
2023/08/28 09:54:09;;;;;;;2.25;0.90;;;;;;;;;;5055678;28;20510;-27
2023/08/28 09:56:35;;;;;;;3.05;1.00;;;;;;;;;;5055390;28;20028;-27
2023/08/28 09:59:01;;;;;;;4.25;1.38;;;;;;;;;;5055568;28;20028;-28
2023/08/28 10:01:29;;;;;;;5.18;1.33;;;;;;;;;;5055329;28;20104;-26
2023/08/28 10:03:55;;;;;;;2.70;1.10;;;;;;;;;;5055882;28;20052;-26
2023/08/28 10:06:21;;;;;;;4.68;1.05;;;;;;;;;;5055268;28;20016;-27
2023/08/28 10:08:46;;;;;;;2.90;1.13;;;;;;;;;;5055340;28;20029;-27
2023/08/28 10:11:11;;;;;;;5.07;1.15;;;;;;;;;;5055623;28;20256;-27
2023/08/28 10:13:36;;;;;;;4.30;1.10;;;;;;;;;;5054947;28;20048;-27
2023/08/28 10:16:06;;;;;;;3.38;1.25;;;;;;;;;;5054911;28;20248;-27
2023/08/28 10:18:37;;;;;;;2.15;1.08;;;;;;;;;;5055274;28;20100;-26
2023/08/28 10:21:02;;;;;;;3.35;1.15;;;;;;;;;;5055486;28;20028;-26
2023/08/28 10:23:28;;;;;;;2.95;0.93;;;;;;;;;;5054940;28;20025;-27
2023/08/28 10:25:54;;;;;;;4.00;1.13;;;;;;;;;;5055928;28;20024;-27
2023/08/28 10:28:19;;;;;;;3.50;1.10;;;;;;;;;;5054712;28;20028;-27
2023/08/28 10:30:46;;;;;;;4.68;0.98;;;;;;;;;;5054602;28;20025;-27
2023/08/28 10:33:13;;;;;;;3.20;0.98;;;;;;;;;;5055462;28;20044;-27
2023/08/28 10:35:39;;;;;;;2.80;1.13;;;;;;;;;;5054584;28;20013;-27
2023/08/28 10:38:05;;;;;;;4.90;1.20;;;;;;;;;;5055081;28;20021;-27
2023/08/28 10:40:30;;;;;;;2.58;1.00;;;;;;;;;;5054592;28;20091;-27
2023/08/28 10:42:56;;;;;;;3.22;1.10;;;;;;;;;;5055006;28;20017;-27
2023/08/28 10:45:21;;;;;;;2.95;1.15;;;;;;;;;;5054748;28;20021;-27
2023/08/28 10:47:50;;;;;;;1.65;0.88;;;;;;;;;;5054411;28;20028;-27
2023/08/28 10:50:15;;;;;;;3.42;1.05;;;;;;;;;;5054353;28;20021;-27
2023/08/28 10:52:40;;;;;;;4.50;1.20;;;;;;;;;;5054917;28;20035;-27
2023/08/28 10:55:09;;;;;;;3.17;1.00;;;;;;;;;;5054250;28;20048;-27
2023/08/28 10:57:39;;;;;;;1.98;1.00;;;;;;;;;;5054187;28;20248;-27
2023/08/28 11:00:15;;;;;;;4.20;1.33;;;;;;;;;;5053903;28;20037;-26
2023/08/28 11:03:00;;;;;;;3.70;0.95;;;;;;;;;;5054316;28;20056;-27
2023/08/28 11:05:25;;;;;;;2.42;1.20;;;;;;;;;;5052738;28;20464;-27
2023/08/28 11:07:53;;;;;;;4.27;1.23;;;;;;;;;;5054068;28;20154;-27
2023/08/28 11:10:20;;;;;;;4.88;1.13;;;;;;;;;;5054447;28;20694;-27
2023/08/28 11:12:56;;;;;;;3.90;1.30;;;;;;;;;;5053698;28;20017;-27
2023/08/28 11:15:26;;;;;;;4.43;1.10;;;;;;;;;;5054103;28;20421;-26
2023/08/28 11:18:11;;;;;;;4.35;1.38;;;;;;;;;;5053723;28;20059;-27
2023/08/28 11:20:37;;;;;;;3.53;1.23;;;;;;;;;;5053605;28;20532;-27
2023/08/28 11:23:02;;;;;;;3.03;1.20;;;;;;;;;;5053778;28;20139;-27
2023/08/28 11:25:37;;;;;;;4.35;1.20;;;;;;;;;;5054328;28;20099;-27
2023/08/28 11:28:03;;;;;;;3.22;0.95;;;;;;;;;;5053892;28;20025;-27
2023/08/28 11:30:29;;;;;;;3.38;0.88;;;;;;;;;;5053507;28;20013;-27
2023/08/28 11:32:55;;;;;;;4.07;1.00;;;;;;;;;;5054654;28;20123;-27
2023/08/28 11:35:20;;;;;;;1.58;0.80;;;;;;;;;;5053803;28;20025;-27
2023/08/28 11:37:46;;;;;;;3.65;1.13;;;;;;;;;;5053812;28;20501;-27
2023/08/28 11:40:16;;;;;;;3.42;1.17;;;;;;;;;;5052932;28;20029;-27
2023/08/28 11:42:42;;;;;;;2.58;0.98;;;;;;;;;;5053698;28;20136;-27
2023/08/28 11:45:07;;;;;;;2.28;1.10;;;;;;;;;;5053994;28;20029;-27
2023/08/28 11:47:33;;;;;;;4.28;1.00;;;;;;;;;;5053662;28;20028;-27
2023/08/28 11:49:59;;;;;;;4.03;0.90;;;;;;;;;;5053594;28;20378;-27
2023/08/28 11:52:24;;;;;;;2.83;0.90;;;;;;;;;;5053581;28;20036;-27
2023/08/28 11:54:50;;;;;;;1.65;0.57;;;;;;;;;;5052918;28;20017;-27
2023/08/28 11:57:16;;;;;;;3.55;1.20;;;;;;;;;;5053307;28;20028;-27
2023/08/28 11:59:42;;;;;;;3.10;1.00;;;;;;;;;;5053459;28;20056;-27
2023/08/28 12:02:08;;;;;;;4.85;1.00;;;;;;;;;;5053492;28;20062;-27
2023/08/28 12:04:36;;;;;;;2.78;1.10;;;;;;;;;;5053470;28;20025;-27
2023/08/28 12:07:01;;;;;;;4.28;0.93;;;;;;;;;;5053224;28;20017;-27
2023/08/28 12:09:26;;;;;;;3.58;1.20;;;;;;;;;;5053176;28;20024;-27
2023/08/28 12:11:53;;;;;;;1.38;0.80;;;;;;;;;;5053464;28;20033;-27
2023/08/28 12:14:20;;;;;;;3.38;0.80;;;;;;;;;;5053020;28;20041;-27
2023/08/28 12:16:45;;;;;;;4.40;1.00;;;;;;;;;;5053683;28;20398;-28
2023/08/28 12:19:16;;;;;;;4.97;1.00;;;;;;;;;;5053419;28;20016;-27
2023/08/28 12:21:41;;;;;;;4.97;0.80;;;;;;;;;;5053125;28;20255;-27
2023/08/28 12:24:09;;;;;;;3.47;1.00;;;;;;;;;;5053629;28;20025;-27
2023/08/28 12:26:36;;;;;;;3.10;0.90;;;;;;;;;;5053596;28;20134;-29
2023/08/28 12:29:03;;;;;;;5.88;1.13;;;;;;;;;;5053221;28;20468;-27
2023/08/28 12:31:35;;;;;;;2.17;0.82;;;;;;;;;;5053186;28;20017;-27
2023/08/28 12:34:07;;;;;;;1.25;0.80;;;;;;;;;;5052912;28;20017;-27
2023/08/28 12:36:34;;;;;;;9.07;1.00;;;;;;;;;;5053042;28;20052;-27
2023/08/28 12:38:59;;;;;;;2.10;0.80;;;;;;;;;;5053203;28;20029;-27
2023/08/28 12:41:25;;;;;;;4.80;1.10;;;;;;;;;;5053185;28;20035;-27
2023/08/28 12:43:50;;;;;;;2.47;0.60;;;;;;;;;;5053424;28;20584;-27
2023/08/28 12:46:15;;;;;;;2.43;0.70;;;;;;;;;;5053170;28;20595;-27
2023/08/28 12:48:40;;;;;;;2.63;0.88;;;;;;;;;;5053297;28;20282;-27
2023/08/28 12:51:06;;;;;;;2.72;0.95;;;;;;;;;;5053510;28;20017;-27
2023/08/28 12:53:31;;;;;;;3.00;0.67;;;;;;;;;;5056654;28;20558;-27
2023/08/28 12:55:56;;;;;;;1.83;0.75;;;;;;;;;;5056789;28;20017;-27
2023/08/28 12:58:22;;;;;;;3.77;1.07;;;;;;;;;;5057002;28;20024;-27
2023/08/28 13:00:47;;;;;;;2.45;0.70;;;;;;;;;;5056791;28;20460;-27
2023/08/28 13:03:13;;;;;;;3.58;0.57;;;;;;;;;;5056421;28;20021;-27
2023/08/28 13:05:38;;;;;;;1.65;0.73;;;;;;;;;;5056674;28;20027;-27
2023/08/28 13:08:04;;;;;;;3.20;0.87;;;;;;;;;;5056726;28;20029;-27
2023/08/28 13:10:29;;;;;;;1.48;0.70;;;;;;;;;;5056951;28;20078;-27
2023/08/28 13:12:54;;;;;;;6.10;1.10;;;;;;;;;;5056572;28;20017;-27
2023/08/28 13:15:19;;;;;;;3.70;0.80;;;;;;;;;;5056727;28;20256;-27
2023/08/28 13:17:44;;;;;;;1.27;0.80;;;;;;;;;;5056446;28;20025;-27
2023/08/28 13:20:10;;;;;;;1.30;0.70;;;;;;;;;;5056296;28;20021;-27
2023/08/28 13:22:35;;;;;;;3.00;0.80;;;;;;;;;;5055953;28;20260;-27
2023/08/28 13:25:01;;;;;;;3.10;1.00;;;;;;;;;;5056281;28;20397;-26
2023/08/28 13:27:26;;;;;;;1.63;0.73;;;;;;;;;;5056447;28;20032;-27
2023/08/28 13:29:51;;;;;;;2.25;0.80;;;;;;;;;;5056213;28;20361;-28
2023/08/28 13:32:16;;;;;;;5.07;0.93;;;;;;;;;;5055892;28;20041;-26
2023/08/28 13:34:42;;;;;;;6.10;0.80;;;;;;;;;;5056370;28;20025;-26
2023/08/28 13:37:07;;;;;;;6.43;1.00;;;;;;;;;;5056267;28;20252;-26
2023/08/28 13:39:32;;;;;;;2.43;0.90;;;;;;;;;;5056335;28;20078;-26
2023/08/28 13:41:57;;;;;;;0.80;0.65;;;;;;;;;;5055977;28;20256;-26
2023/08/28 13:44:23;;;;;;;2.53;0.80;;;;;;;;;;5055894;28;20044;-26
2023/08/28 13:46:48;;;;;;;3.83;1.05;;;;;;;;;;5055573;28;20264;-27
2023/08/28 13:49:13;;;;;;;1.00;0.65;;;;;;;;;;5055669;28;20053;-27
2023/08/28 13:51:38;;;;;;;1.73;0.80;;;;;;;;;;5055813;28;20404;-31
2023/08/28 13:54:04;;;;;;;2.27;0.73;;;;;;;;;;5055993;28;20025;-27
2023/08/28 13:56:29;;;;;;;2.90;1.05;;;;;;;;;;5055325;28;20025;-29
2023/08/28 13:58:54;;;;;;;2.47;0.60;;;;;;;;;;5055720;28;20096;-27
2023/08/28 14:01:19;;;;;;;2.13;0.90;;;;;;;;;;5055487;28;20021;-27
2023/08/28 14:03:44;;;;;;;2.37;0.80;;;;;;;;;;5055176;28;20266;-27
2023/08/28 14:06:10;;;;;;;3.60;1.00;;;;;;;;;;5055677;28;20032;-27
2023/08/28 14:08:35;;;;;;;1.93;1.00;;;;;;;;;;5055387;28;20518;-27
2023/08/28 14:11:07;;;;;;;2.77;1.10;;;;;;;;;;5055676;28;20109;-27
2023/08/28 14:13:32;;;;;;;2.37;1.00;;;;;;;;;;5054952;28;20040;-27
2023/08/28 14:15:58;;;;;;;2.22;1.00;;;;;;;;;;5054998;28;20028;-26
2023/08/28 14:18:23;;;;;;;4.70;1.08;;;;;;;;;;5055267;28;20068;-27
2023/08/28 14:20:52;;;;;;;1.73;1.00;;;;;;;;;;5055036;28;20025;-26
2023/08/28 14:23:17;;;;;;;6.10;1.00;;;;;;;;;;5055914;28;20108;-27
2023/08/28 14:25:42;;;;;;;3.45;0.88;;;;;;;;;;5054860;28;20036;-27
2023/08/28 14:28:08;;;;;;;4.33;0.83;;;;;;;;;;5055290;28;20025;-27
2023/08/28 14:30:33;;;;;;;2.43;0.67;;;;;;;;;;5055116;28;20054;-26
2023/08/28 14:32:58;;;;;;;9.18;1.13;;;;;;;;;;5054806;28;20745;-26